sensor_id;sensor_type;location;lat;lon;timestamp;pressure;altitude;pressure_sealevel;temperature;humidity
5062;BME280;2351;50.812;12.872;2023-04-08T00:01:38;98187.78;;;2.61;100.00
5062;BME280;2351;50.812;12.872;2023-04-08T00:04:09;98185.19;;;2.61;100.00
5062;BME280;2351;50.812;12.872;2023-04-08T00:06:43;98190.25;;;2.64;100.00
5062;BME280;2351;50.812;12.872;2023-04-08T00:09:15;98191.94;;;2.65;100.00
5062;BME280;2351;50.812;12.872;2023-04-08T00:11:48;98186.00;;;2.61;100.00
5062;BME280;2351;50.812;12.872;2023-04-08T00:14:20;98190.47;;;2.59;100.00
5062;BME280;2351;50.812;12.872;2023-04-08T00:16:51;98187.84;;;2.59;100.00
5062;BME280;2351;50.812;12.872;2023-04-08T00:19:23;98190.41;;;2.61;100.00
5062;BME280;2351;50.812;12.872;2023-04-08T00:21:55;98188.56;;;2.63;100.00
5062;BME280;2351;50.812;12.872;2023-04-08T00:24:27;98188.72;;;2.60;100.00
5062;BME280;2351;50.812;12.872;2023-04-08T00:27:00;98184.41;;;2.59;100.00
5062;BME280;2351;50.812;12.872;2023-04-08T00:29:32;98187.03;;;2.59;100.00
5062;BME280;2351;50.812;12.872;2023-04-08T00:32:03;98187.41;;;2.51;100.00
5062;BME280;2351;50.812;12.872;2023-04-08T00:34:35;98190.16;;;2.48;100.00
5062;BME280;2351;50.812;12.872;2023-04-08T00:37:07;98182.31;;;2.48;100.00
5062;BME280;2351;50.812;12.872;2023-04-08T00:39:39;98195.38;;;2.48;100.00
5062;BME280;2351;50.812;12.872;2023-04-08T00:42:12;98192.69;;;2.49;100.00
5062;BME280;2351;50.812;12.872;2023-04-08T00:44:44;98191.00;;;2.48;100.00
5062;BME280;2351;50.812;12.872;2023-04-08T00:47:16;98191.13;;;2.45;100.00
5062;BME280;2351;50.812;12.872;2023-04-08T00:49:48;98187.69;;;2.45;100.00
5062;BME280;2351;50.812;12.872;2023-04-08T00:52:20;98184.16;;;2.46;100.00
5062;BME280;2351;50.812;12.872;2023-04-08T00:54:51;98186.63;;;2.49;100.00
5062;BME280;2351;50.812;12.872;2023-04-08T00:57:25;98189.09;;;2.52;100.00
5062;BME280;2351;50.812;12.872;2023-04-08T00:59:56;98181.16;;;2.53;100.00
5062;BME280;2351;50.812;12.872;2023-04-08T01:02:34;98183.94;;;2.50;100.00
5062;BME280;2351;50.812;12.872;2023-04-08T01:05:12;98194.38;;;2.50;100.00
5062;BME280;2351;50.812;12.872;2023-04-08T01:07:47;98194.31;;;2.52;100.00
5062;BME280;2351;50.812;12.872;2023-04-08T01:10:21;98198.63;;;2.53;100.00
5062;BME280;2351;50.812;12.872;2023-04-08T01:12:56;98197.69;;;2.54;100.00
5062;BME280;2351;50.812;12.872;2023-04-08T01:15:30;98197.53;;;2.57;100.00
5062;BME280;2351;50.812;12.872;2023-04-08T01:18:08;98203.69;;;2.56;100.00
5062;BME280;2351;50.812;12.872;2023-04-08T01:20:42;98199.31;;;2.56;100.00
5062;BME280;2351;50.812;12.872;2023-04-08T01:23:18;98201.06;;;2.56;100.00
5062;BME280;2351;50.812;12.872;2023-04-08T01:25:53;98194.91;;;2.57;100.00
5062;BME280;2351;50.812;12.872;2023-04-08T01:28:28;98198.31;;;2.59;100.00
5062;BME280;2351;50.812;12.872;2023-04-08T01:31:01;98196.63;;;2.58;100.00
5062;BME280;2351;50.812;12.872;2023-04-08T01:33:34;98195.69;;;2.59;100.00
5062;BME280;2351;50.812;12.872;2023-04-08T01:36:07;98197.38;;;2.60;100.00
5062;BME280;2351;50.812;12.872;2023-04-08T01:38:40;98186.94;;;2.60;100.00
5062;BME280;2351;50.812;12.872;2023-04-08T01:41:16;98194.78;;;2.60;100.00
5062;BME280;2351;50.812;12.872;2023-04-08T01:43:49;98190.41;;;2.61;100.00
5062;BME280;2351;50.812;12.872;2023-04-08T01:46:22;98190.31;;;2.62;100.00
5062;BME280;2351;50.812;12.872;2023-04-08T01:48:54;98191.94;;;2.65;100.00
5062;BME280;2351;50.812;12.872;2023-04-08T01:51:28;98185.78;;;2.66;100.00
5062;BME280;2351;50.812;12.872;2023-04-08T01:54:02;98192.00;;;2.63;100.00
5062;BME280;2351;50.812;12.872;2023-04-08T01:56:37;98190.25;;;2.64;100.00
5062;BME280;2351;50.812;12.872;2023-04-08T01:59:12;98181.41;;;2.66;100.00
5062;BME280;2351;50.812;12.872;2023-04-08T02:01:46;98178.78;;;2.66;100.00
5062;BME280;2351;50.812;12.872;2023-04-08T02:04:18;98186.63;;;2.66;100.00
5062;BME280;2351;50.812;12.872;2023-04-08T02:06:50;98177.94;;;2.66;100.00
5062;BME280;2351;50.812;12.872;2023-04-08T02:09:23;98179.63;;;2.67;100.00
5062;BME280;2351;50.812;12.872;2023-04-08T02:11:56;98177.00;;;2.67;100.00
5062;BME280;2351;50.812;12.872;2023-04-08T02:14:28;98184.09;;;2.65;100.00
5062;BME280;2351;50.812;12.872;2023-04-08T02:17:04;98176.31;;;2.63;100.00
5062;BME280;2351;50.812;12.872;2023-04-08T02:19:44;98182.31;;;2.65;100.00
5062;BME280;2351;50.812;12.872;2023-04-08T02:22:30;98184.84;;;2.67;100.00
5062;BME280;2351;50.812;12.872;2023-04-08T02:25:10;98184.69;;;2.70;100.00
5062;BME280;2351;50.812;12.872;2023-04-08T02:27:45;98184.66;;;2.71;100.00
5062;BME280;2351;50.812;12.872;2023-04-08T02:30:18;98182.84;;;2.72;100.00
5062;BME280;2351;50.812;12.872;2023-04-08T02:32:50;98180.19;;;2.74;100.00
5062;BME280;2351;50.812;12.872;2023-04-08T02:35:23;98181.78;;;2.76;100.00
5062;BME280;2351;50.812;12.872;2023-04-08T02:37:55;98183.56;;;2.76;100.00
5062;BME280;2351;50.812;12.872;2023-04-08T02:40:29;98181.78;;;2.76;100.00
5062;BME280;2351;50.812;12.872;2023-04-08T02:43:03;98172.09;;;2.78;100.00
5062;BME280;2351;50.812;12.872;2023-04-08T02:45:39;98182.56;;;2.78;100.00
5062;BME280;2351;50.812;12.872;2023-04-08T02:48:11;98180.00;;;2.77;100.00
5062;BME280;2351;50.812;12.872;2023-04-08T02:50:43;98182.72;;;2.75;100.00
5062;BME280;2351;50.812;12.872;2023-04-08T02:53:14;98184.41;;;2.76;100.00
5062;BME280;2351;50.812;12.872;2023-04-08T02:55:46;98186.00;;;2.79;100.00
5062;BME280;2351;50.812;12.872;2023-04-08T02:58:19;98193.84;;;2.79;100.00
5062;BME280;2351;50.812;12.872;2023-04-08T03:00:51;98194.72;;;2.79;100.00
5062;BME280;2351;50.812;12.872;2023-04-08T03:03:22;98189.47;;;2.79;100.00
5062;BME280;2351;50.812;12.872;2023-04-08T03:05:58;98186.78;;;2.81;100.00
5062;BME280;2351;50.812;12.872;2023-04-08T03:08:30;98190.16;;;2.83;100.00
5062;BME280;2351;50.812;12.872;2023-04-08T03:11:02;98184.88;;;2.84;100.00
5062;BME280;2351;50.812;12.872;2023-04-08T03:13:35;98194.31;;;2.87;100.00
5062;BME280;2351;50.812;12.872;2023-04-08T03:16:07;98188.31;;;2.85;100.00
5062;BME280;2351;50.812;12.872;2023-04-08T03:18:39;98194.47;;;2.84;100.00
5062;BME280;2351;50.812;12.872;2023-04-08T03:21:10;98198.94;;;2.82;100.00
5062;BME280;2351;50.812;12.872;2023-04-08T03:23:43;98195.38;;;2.83;100.00
5062;BME280;2351;50.812;12.872;2023-04-08T03:26:14;98190.25;;;2.81;100.00
5062;BME280;2351;50.812;12.872;2023-04-08T03:28:47;98190.31;;;2.80;100.00
5062;BME280;2351;50.812;12.872;2023-04-08T03:31:19;98190.31;;;2.80;100.00
5062;BME280;2351;50.812;12.872;2023-04-08T03:33:51;98194.72;;;2.79;100.00
5062;BME280;2351;50.812;12.872;2023-04-08T03:36:23;98207.84;;;2.78;100.00
5062;BME280;2351;50.812;12.872;2023-04-08T03:38:56;98211.38;;;2.77;100.00
5062;BME280;2351;50.812;12.872;2023-04-08T03:41:27;98205.31;;;2.76;100.00
5062;BME280;2351;50.812;12.872;2023-04-08T03:44:01;98195.88;;;2.74;100.00
5062;BME280;2351;50.812;12.872;2023-04-08T03:46:33;98202.78;;;2.75;100.00
5062;BME280;2351;50.812;12.872;2023-04-08T03:49:04;98204.53;;;2.74;100.00
5062;BME280;2351;50.812;12.872;2023-04-08T03:51:36;98203.78;;;2.72;100.00
5062;BME280;2351;50.812;12.872;2023-04-08T03:54:08;98208.16;;;2.71;100.00
5062;BME280;2351;50.812;12.872;2023-04-08T03:56:40;98216.84;;;2.72;100.00
5062;BME280;2351;50.812;12.872;2023-04-08T03:59:13;98220.31;;;2.73;100.00
5062;BME280;2351;50.812;12.872;2023-04-08T04:01:45;98213.41;;;2.71;100.00
5062;BME280;2351;50.812;12.872;2023-04-08T04:04:16;98216.84;;;2.72;100.00
5062;BME280;2351;50.812;12.872;2023-04-08T04:06:48;98223.69;;;2.75;100.00
5062;BME280;2351;50.812;12.872;2023-04-08T04:09:20;98219.16;;;2.78;100.00
5062;BME280;2351;50.812;12.872;2023-04-08T04:11:52;98216.44;;;2.80;100.00
5062;BME280;2351;50.812;12.872;2023-04-08T04:14:25;98218.09;;;2.82;100.00
5062;BME280;2351;50.812;12.872;2023-04-08T04:16:56;98227.53;;;2.85;100.00
5062;BME280;2351;50.812;12.872;2023-04-08T04:19:29;98219.84;;;2.82;100.00
5062;BME280;2351;50.812;12.872;2023-04-08T04:22:01;98224.25;;;2.81;100.00
5062;BME280;2351;50.812;12.872;2023-04-08T04:24:32;98224.25;;;2.81;100.00
5062;BME280;2351;50.812;12.872;2023-04-08T04:27:04;98221.53;;;2.83;100.00
5062;BME280;2351;50.812;12.872;2023-04-08T04:29:37;98218.00;;;2.84;100.00
5062;BME280;2351;50.812;12.872;2023-04-08T04:32:09;98226.63;;;2.86;100.00
5062;BME280;2351;50.812;12.872;2023-04-08T04:34:41;98223.06;;;2.87;100.00
5062;BME280;2351;50.812;12.872;2023-04-08T04:37:13;98219.69;;;2.85;100.00
5062;BME280;2351;50.812;12.872;2023-04-08T04:39:45;98225.94;;;2.82;100.00
5062;BME280;2351;50.812;12.872;2023-04-08T04:42:17;98233.78;;;2.82;100.00
5062;BME280;2351;50.812;12.872;2023-04-08T04:44:50;98230.25;;;2.83;100.00
5062;BME280;2351;50.812;12.872;2023-04-08T04:47:23;98231.22;;;2.81;100.00
5062;BME280;2351;50.812;12.872;2023-04-08T04:49:55;98228.59;;;2.81;100.00
5062;BME280;2351;50.812;12.872;2023-04-08T04:52:26;98236.53;;;2.79;100.00
5062;BME280;2351;50.812;12.872;2023-04-08T04:54:58;98244.44;;;2.78;100.00
5062;BME280;2351;50.812;12.872;2023-04-08T04:57:30;98237.50;;;2.77;100.00
5062;BME280;2351;50.812;12.872;2023-04-08T05:00:04;98243.59;;;2.77;100.00
5062;BME280;2351;50.812;12.872;2023-04-08T05:02:36;98243.47;;;2.80;100.00
5062;BME280;2351;50.812;12.872;2023-04-08T05:05:08;98250.44;;;2.80;100.00
5062;BME280;2351;50.812;12.872;2023-04-08T05:07:39;98240.75;;;2.82;100.00
5062;BME280;2351;50.812;12.872;2023-04-08T05:10:11;98247.69;;;2.83;100.00
5062;BME280;2351;50.812;12.872;2023-04-08T05:12:43;98253.81;;;2.82;100.00
5062;BME280;2351;50.812;12.872;2023-04-08T05:15:16;98255.53;;;2.83;100.00
5062;BME280;2351;50.812;12.872;2023-04-08T05:17:48;98260.84;;;2.81;100.00
5062;BME280;2351;50.812;12.872;2023-04-08T05:20:19;98262.59;;;2.81;100.00
5062;BME280;2351;50.812;12.872;2023-04-08T05:22:51;98261.75;;;2.80;100.00
5062;BME280;2351;50.812;12.872;2023-04-08T05:25:23;98259.19;;;2.79;100.00
5062;BME280;2351;50.812;12.872;2023-04-08T05:27:55;98251.34;;;2.79;100.00
5062;BME280;2351;50.812;12.872;2023-04-08T05:30:28;98265.97;;;2.83;100.00
5062;BME280;2351;50.812;12.872;2023-04-08T05:33:00;98265.91;;;2.84;100.00
5062;BME280;2351;50.812;12.872;2023-04-08T05:35:32;98263.31;;;2.84;100.00
5062;BME280;2351;50.812;12.872;2023-04-08T05:38:03;98268.28;;;2.89;100.00
5062;BME280;2351;50.812;12.872;2023-04-08T05:40:36;98275.13;;;2.92;100.00
5062;BME280;2351;50.812;12.872;2023-04-08T05:43:07;98272.47;;;2.93;100.00
5062;BME280;2351;50.812;12.872;2023-04-08T05:45:41;98277.59;;;2.95;100.00
5062;BME280;2351;50.812;12.872;2023-04-08T05:48:12;98272.31;;;2.96;100.00
5062;BME280;2351;50.812;12.872;2023-04-08T05:50:44;98268.78;;;2.97;100.00
5062;BME280;2351;50.812;12.872;2023-04-08T05:53:17;98268.00;;;2.95;100.00
5062;BME280;2351;50.812;12.872;2023-04-08T05:55:49;98268.00;;;2.95;100.00
5062;BME280;2351;50.812;12.872;2023-04-08T05:58:21;98266.47;;;2.91;100.00
5062;BME280;2351;50.812;12.872;2023-04-08T06:00:54;98277.69;;;2.93;100.00
5062;BME280;2351;50.812;12.872;2023-04-08T06:03:25;98272.22;;;2.98;100.00
5062;BME280;2351;50.812;12.872;2023-04-08T06:05:57;98282.06;;;2.93;100.00
5062;BME280;2351;50.812;12.872;2023-04-08T06:08:29;98285.53;;;2.93;100.00
5062;BME280;2351;50.812;12.872;2023-04-08T06:11:01;98294.28;;;2.92;100.00
5062;BME280;2351;50.812;12.872;2023-04-08T06:13:33;98291.53;;;2.95;100.00
5062;BME280;2351;50.812;12.872;2023-04-08T06:16:13;98293.13;;;2.98;100.00
5062;BME280;2351;50.812;12.872;2023-04-08T06:18:46;98294.16;;;2.95;100.00
5062;BME280;2351;50.812;12.872;2023-04-08T06:21:18;98290.53;;;2.98;100.00
5062;BME280;2351;50.812;12.872;2023-04-08T06:23:50;98299.19;;;2.98;100.00
5062;BME280;2351;50.812;12.872;2023-04-08T06:26:22;98306.84;;;3.03;100.00
5062;BME280;2351;50.812;12.872;2023-04-08T06:28:54;98312.84;;;3.05;100.00
5062;BME280;2351;50.812;12.872;2023-04-08T06:31:27;98315.53;;;3.04;100.00
5062;BME280;2351;50.812;12.872;2023-04-08T06:33:58;98316.75;;;2.96;100.00
5062;BME280;2351;50.812;12.872;2023-04-08T06:36:30;98320.91;;;3.00;100.00
5062;BME280;2351;50.812;12.872;2023-04-08T06:39:02;98313.13;;;2.99;100.00
5062;BME280;2351;50.812;12.872;2023-04-08T06:41:34;98313.97;;;2.99;100.00
5062;BME280;2351;50.812;12.872;2023-04-08T06:44:06;98311.34;;;2.99;100.00
5062;BME280;2351;50.812;12.872;2023-04-08T06:46:39;98308.69;;;3.01;100.00
5062;BME280;2351;50.812;12.872;2023-04-08T06:49:11;98317.22;;;3.05;100.00
5062;BME280;2351;50.812;12.872;2023-04-08T06:51:43;98315.22;;;3.10;100.00
5062;BME280;2351;50.812;12.872;2023-04-08T06:54:15;98317.53;;;3.16;100.00
5062;BME280;2351;50.812;12.872;2023-04-08T06:56:46;98326.00;;;3.21;100.00
5062;BME280;2351;50.812;12.872;2023-04-08T06:59:18;98319.84;;;3.22;100.00
5062;BME280;2351;50.812;12.872;2023-04-08T07:01:51;98320.00;;;3.19;100.00
5062;BME280;2351;50.812;12.872;2023-04-08T07:04:23;98326.63;;;3.26;100.00
5062;BME280;2351;50.812;12.872;2023-04-08T07:06:54;98327.22;;;3.31;100.00
5062;BME280;2351;50.812;12.872;2023-04-08T07:09:27;98328.94;;;3.33;100.00
5062;BME280;2351;50.812;12.872;2023-04-08T07:11:58;98332.47;;;3.31;100.00
5062;BME280;2351;50.812;12.872;2023-04-08T07:14:30;98332.72;;;3.27;100.00
5062;BME280;2351;50.812;12.872;2023-04-08T07:17:03;98332.09;;;3.22;100.00
5062;BME280;2351;50.812;12.872;2023-04-08T07:19:35;98329.38;;;3.23;100.00
5062;BME280;2351;50.812;12.872;2023-04-08T07:22:07;98335.09;;;3.31;100.00
5062;BME280;2351;50.812;12.872;2023-04-08T07:24:38;98336.78;;;3.33;100.00
5062;BME280;2351;50.812;12.872;2023-04-08T07:27:12;98331.31;;;3.37;100.00
5062;BME280;2351;50.812;12.872;2023-04-08T07:29:44;98341.47;;;3.43;100.00
5062;BME280;2351;50.812;12.872;2023-04-08T07:32:17;98337.94;;;3.44;100.00
5062;BME280;2351;50.812;12.872;2023-04-08T07:34:49;98338.84;;;3.43;100.00
5062;BME280;2351;50.812;12.872;2023-04-08T07:37:20;98343.06;;;3.46;100.00
5062;BME280;2351;50.812;12.872;2023-04-08T07:39:52;98348.00;;;3.52;100.00
5062;BME280;2351;50.812;12.872;2023-04-08T07:42:24;98346.56;;;3.46;100.00
5062;BME280;2351;50.812;12.872;2023-04-08T07:44:56;98349.31;;;3.43;100.00
5062;BME280;2351;50.812;12.872;2023-04-08T07:47:29;98360.72;;;3.42;100.00
5062;BME280;2351;50.812;12.872;2023-04-08T07:50:01;98357.41;;;3.39;100.00
5062;BME280;2351;50.812;12.872;2023-04-08T07:52:33;98360.81;;;3.41;100.00
5062;BME280;2351;50.812;12.872;2023-04-08T07:55:05;98359.16;;;3.38;100.00
5062;BME280;2351;50.812;12.872;2023-04-08T07:57:37;98362.66;;;3.39;100.00
5062;BME280;2351;50.812;12.872;2023-04-08T08:00:10;98362.25;;;3.46;100.00
5062;BME280;2351;50.812;12.872;2023-04-08T08:02:43;98360.03;;;3.56;100.00
5062;BME280;2351;50.812;12.872;2023-04-08T08:05:15;98367.56;;;3.63;100.00
5062;BME280;2351;50.812;12.872;2023-04-08T08:07:46;98367.56;;;3.63;100.00
5062;BME280;2351;50.812;12.872;2023-04-08T08:10:19;98368.50;;;3.61;100.00
5062;BME280;2351;50.812;12.872;2023-04-08T08:12:51;98365.53;;;3.68;100.00
5062;BME280;2351;50.812;12.872;2023-04-08T08:15:23;98370.31;;;3.77;100.00
5062;BME280;2351;50.812;12.872;2023-04-08T08:17:56;98370.16;;;3.80;100.00
5062;BME280;2351;50.812;12.872;2023-04-08T08:20:27;98377.25;;;3.78;100.00
5062;BME280;2351;50.812;12.872;2023-04-08T08:22:59;98383.16;;;3.82;100.00
5062;BME280;2351;50.812;12.872;2023-04-08T08:25:31;98383.88;;;3.85;100.00
5062;BME280;2351;50.812;12.872;2023-04-08T08:28:03;98380.22;;;3.88;100.00
5062;BME280;2351;50.812;12.872;2023-04-08T08:30:35;98376.59;;;3.90;100.00
5062;BME280;2351;50.812;12.872;2023-04-08T08:33:09;98380.91;;;3.91;100.00
5062;BME280;2351;50.812;12.872;2023-04-08T08:35:40;98394.72;;;3.95;100.00
5062;BME280;2351;50.812;12.872;2023-04-08T08:38:12;98390.25;;;3.97;100.00
5062;BME280;2351;50.812;12.872;2023-04-08T08:40:44;98386.34;;;4.04;100.00
5062;BME280;2351;50.812;12.872;2023-04-08T08:43:16;98392.66;;;4.18;100.00
5062;BME280;2351;50.812;12.872;2023-04-08T08:45:48;98393.50;;;4.18;100.00
5062;BME280;2351;50.812;12.872;2023-04-08T08:48:21;98388.56;;;4.30;100.00
5062;BME280;2351;50.812;12.872;2023-04-08T08:50:52;98393.03;;;4.10;100.00
5062;BME280;2351;50.812;12.872;2023-04-08T08:53:28;98403.16;;;4.18;100.00
5062;BME280;2351;50.812;12.872;2023-04-08T08:56:00;98407.81;;;4.29;100.00
5062;BME280;2351;50.812;12.872;2023-04-08T08:58:31;98401.66;;;4.30;100.00
5062;BME280;2351;50.812;12.872;2023-04-08T09:01:28;98407.56;;;4.33;100.00
5062;BME280;2351;50.812;12.872;2023-04-08T09:04:22;98406.13;;;4.44;100.00
5062;BME280;2351;50.812;12.872;2023-04-08T09:07:08;98406.06;;;4.45;100.00
5062;BME280;2351;50.812;12.872;2023-04-08T09:09:47;98412.59;;;4.54;100.00
5062;BME280;2351;50.812;12.872;2023-04-08T09:12:19;98409.53;;;4.62;100.00
5062;BME280;2351;50.812;12.872;2023-04-08T09:15:02;98417.84;;;4.70;100.00
5062;BME280;2351;50.812;12.872;2023-04-08T09:17:35;98415.06;;;4.73;100.00
5062;BME280;2351;50.812;12.872;2023-04-08T09:20:10;98418.97;;;4.82;100.00
5062;BME280;2351;50.812;12.872;2023-04-08T09:23:03;98421.47;;;4.83;100.00
5062;BME280;2351;50.812;12.872;2023-04-08T09:25:34;98428.31;;;4.86;100.00
5062;BME280;2351;50.812;12.872;2023-04-08T09:28:18;98427.97;;;4.76;100.00
5062;BME280;2351;50.812;12.872;2023-04-08T09:30:50;98427.59;;;4.84;100.00
5062;BME280;2351;50.812;12.872;2023-04-08T09:33:29;98432.41;;;4.92;100.00
5062;BME280;2351;50.812;12.872;2023-04-08T09:36:02;98428.50;;;4.99;100.00
5062;BME280;2351;50.812;12.872;2023-04-08T09:38:34;98434.09;;;4.93;100.00
5062;BME280;2351;50.812;12.872;2023-04-08T09:41:07;98430.03;;;4.71;100.00
5062;BME280;2351;50.812;12.872;2023-04-08T09:43:41;98433.94;;;4.80;100.00
5062;BME280;2351;50.812;12.872;2023-04-08T09:46:24;98437.66;;;4.92;100.00
5062;BME280;2351;50.812;12.872;2023-04-08T09:49:00;98438.38;;;5.10;100.00
5062;BME280;2351;50.812;12.872;2023-04-08T09:51:40;98437.13;;;5.17;100.00
5062;BME280;2351;50.812;12.872;2023-04-08T09:54:18;98437.22;;;5.16;100.00
5062;BME280;2351;50.812;12.872;2023-04-08T09:57:00;98438.66;;;5.21;100.00
5062;BME280;2351;50.812;12.872;2023-04-08T09:59:34;98435.50;;;5.31;100.00
5062;BME280;2351;50.812;12.872;2023-04-08T10:02:10;98443.13;;;5.35;100.00
5062;BME280;2351;50.812;12.872;2023-04-08T10:04:44;98448.28;;;5.37;100.00
5062;BME280;2351;50.812;12.872;2023-04-08T10:07:20;98442.41;;;5.48;100.00
5062;BME280;2351;50.812;12.872;2023-04-08T10:09:52;98438.78;;;5.50;100.00
5062;BME280;2351;50.812;12.872;2023-04-08T10:12:24;98438.53;;;5.39;100.00
5062;BME280;2351;50.812;12.872;2023-04-08T10:15:21;98441.31;;;5.52;100.00
5062;BME280;2351;50.812;12.872;2023-04-08T10:17:56;98434.34;;;5.67;100.00
5062;BME280;2351;50.812;12.872;2023-04-08T10:20:51;98454.31;;;5.69;100.00
5062;BME280;2351;50.812;12.872;2023-04-08T10:23:54;98444.06;;;5.65;100.00
5062;BME280;2351;50.812;12.872;2023-04-08T10:26:34;98458.72;;;5.69;100.00
5062;BME280;2351;50.812;12.872;2023-04-08T10:29:30;98448.06;;;5.72;100.00
5062;BME280;2351;50.812;12.872;2023-04-08T10:32:03;98449.47;;;5.78;100.00
5062;BME280;2351;50.812;12.872;2023-04-08T10:34:50;98454.41;;;5.98;100.00
5062;BME280;2351;50.812;12.872;2023-04-08T10:37:22;98447.97;;;5.88;100.00
5062;BME280;2351;50.812;12.872;2023-04-08T10:39:56;98455.09;;;5.86;100.00
5062;BME280;2351;50.812;12.872;2023-04-08T10:42:27;98452.81;;;5.96;100.00
5062;BME280;2351;50.812;12.872;2023-04-08T10:45:01;98448.44;;;6.11;100.00
5062;BME280;2351;50.812;12.872;2023-04-08T10:47:33;98445.44;;;6.02;100.00
5062;BME280;2351;50.812;12.872;2023-04-08T10:50:11;98444.22;;;5.78;100.00
5062;BME280;2351;50.812;12.872;2023-04-08T10:52:47;98448.44;;;5.50;100.00
5062;BME280;2351;50.812;12.872;2023-04-08T10:55:23;98448.25;;;5.53;100.00
5062;BME280;2351;50.812;12.872;2023-04-08T10:58:04;98452.41;;;5.57;100.00
5062;BME280;2351;50.812;12.872;2023-04-08T11:00:37;98453.09;;;5.75;100.00
5062;BME280;2351;50.812;12.872;2023-04-08T11:03:10;98453.00;;;5.62;100.00
5062;BME280;2351;50.812;12.872;2023-04-08T11:05:41;98450.69;;;5.86;100.00
5062;BME280;2351;50.812;12.872;2023-04-08T11:08:13;98450.28;;;6.09;100.00
5062;BME280;2351;50.812;12.872;2023-04-08T11:10:47;98451.34;;;6.21;100.00
5062;BME280;2351;50.812;12.872;2023-04-08T11:13:19;98451.47;;;6.48;100.00
5062;BME280;2351;50.812;12.872;2023-04-08T11:15:51;98445.63;;;6.86;100.00
5062;BME280;2351;50.812;12.872;2023-04-08T11:18:23;98453.78;;;7.23;100.00
5062;BME280;2351;50.812;12.872;2023-04-08T11:20:56;98456.72;;;7.19;100.00
5062;BME280;2351;50.812;12.872;2023-04-08T11:23:28;98459.06;;;7.23;100.00
5062;BME280;2351;50.812;12.872;2023-04-08T11:26:02;98451.53;;;6.75;95.11
5062;BME280;2351;50.812;12.872;2023-04-08T11:28:34;98460.94;;;6.65;98.36
5062;BME280;2351;50.812;12.872;2023-04-08T11:31:06;98466.50;;;6.60;97.13
5062;BME280;2351;50.812;12.872;2023-04-08T11:33:44;98472.03;;;6.70;96.57
5062;BME280;2351;50.812;12.872;2023-04-08T11:36:16;98481.78;;;6.68;99.25
5062;BME280;2351;50.812;12.872;2023-04-08T11:38:48;98475.88;;;6.65;96.46
5062;BME280;2351;50.812;12.872;2023-04-08T11:41:21;98477.38;;;6.83;98.41
5062;BME280;2351;50.812;12.872;2023-04-08T11:43:54;98475.88;;;6.65;94.41
5062;BME280;2351;50.812;12.872;2023-04-08T11:46:26;98487.34;;;6.49;92.25
5062;BME280;2351;50.812;12.872;2023-04-08T11:49:03;98475.50;;;6.56;95.78
5062;BME280;2351;50.812;12.872;2023-04-08T11:51:55;98474.00;;;6.67;95.10
5062;BME280;2351;50.812;12.872;2023-04-08T11:54:27;98474.84;;;6.67;95.65
5062;BME280;2351;50.812;12.872;2023-04-08T11:57:00;98474.75;;;6.69;92.37
5062;BME280;2351;50.812;12.872;2023-04-08T11:59:32;98474.09;;;6.65;93.34
5062;BME280;2351;50.812;12.872;2023-04-08T12:02:04;98477.38;;;6.83;94.32
5062;BME280;2351;50.812;12.872;2023-04-08T12:04:36;98471.53;;;6.78;92.04
5062;BME280;2351;50.812;12.872;2023-04-08T12:07:08;98475.88;;;6.79;92.16
5062;BME280;2351;50.812;12.872;2023-04-08T12:09:40;98478.69;;;6.76;91.28
5062;BME280;2351;50.812;12.872;2023-04-08T12:12:13;98479.63;;;6.75;91.93
5062;BME280;2351;50.812;12.872;2023-04-08T12:14:45;98476.66;;;6.67;90.79
5062;BME280;2351;50.812;12.872;2023-04-08T12:17:17;98477.00;;;6.60;91.52
5062;BME280;2351;50.812;12.872;2023-04-08T12:19:49;98479.09;;;6.70;92.68
5062;BME280;2351;50.812;12.872;2023-04-08T12:22:20;98479.66;;;6.60;92.01
5062;BME280;2351;50.812;12.872;2023-04-08T12:24:52;98487.34;;;6.63;92.17
5062;BME280;2351;50.812;12.872;2023-04-08T12:27:25;98487.91;;;6.54;91.00
5062;BME280;2351;50.812;12.872;2023-04-08T12:29:57;98493.16;;;6.54;91.15
5062;BME280;2351;50.812;12.872;2023-04-08T12:32:29;98495.34;;;6.62;91.99
5062;BME280;2351;50.812;12.872;2023-04-08T12:35:01;98488.09;;;6.66;91.79
5062;BME280;2351;50.812;12.872;2023-04-08T12:37:32;98489.44;;;6.73;92.17
5062;BME280;2351;50.812;12.872;2023-04-08T12:40:05;98486.78;;;6.73;90.35
5062;BME280;2351;50.812;12.872;2023-04-08T12:42:38;98495.22;;;6.78;91.98
5062;BME280;2351;50.812;12.872;2023-04-08T12:45:10;98497.28;;;7.02;92.61
5062;BME280;2351;50.812;12.872;2023-04-08T12:47:42;98494.94;;;6.97;90.56
5062;BME280;2351;50.812;12.872;2023-04-08T12:50:14;98495.31;;;6.91;89.79
5062;BME280;2351;50.812;12.872;2023-04-08T12:52:46;98493.69;;;7.03;91.28
5062;BME280;2351;50.812;12.872;2023-04-08T12:55:18;98498.00;;;7.18;91.73
5062;BME280;2351;50.812;12.872;2023-04-08T12:57:55;98499.69;;;7.19;90.67
5062;BME280;2351;50.812;12.872;2023-04-08T13:00:27;98499.31;;;7.26;91.15
5062;BME280;2351;50.812;12.872;2023-04-08T13:02:58;98491.97;;;7.31;90.73
5062;BME280;2351;50.812;12.872;2023-04-08T13:05:30;98488.72;;;7.40;90.95
5062;BME280;2351;50.812;12.872;2023-04-08T13:08:02;98492.72;;;7.33;88.69
5062;BME280;2351;50.812;12.872;2023-04-08T13:10:34;98485.84;;;7.30;89.70
5062;BME280;2351;50.812;12.872;2023-04-08T13:13:07;98492.09;;;7.15;88.51
5062;BME280;2351;50.812;12.872;2023-04-08T13:15:38;98487.00;;;7.12;89.00
5062;BME280;2351;50.812;12.872;2023-04-08T13:18:10;98482.41;;;7.15;88.99
5062;BME280;2351;50.812;12.872;2023-04-08T13:20:42;98488.88;;;7.24;89.75
5062;BME280;2351;50.812;12.872;2023-04-08T13:23:14;98489.59;;;7.41;90.26
5062;BME280;2351;50.812;12.872;2023-04-08T13:25:47;98485.69;;;7.46;89.81
5062;BME280;2351;50.812;12.872;2023-04-08T13:28:20;98494.78;;;7.55;89.59
5062;BME280;2351;50.812;12.872;2023-04-08T13:30:52;98492.28;;;7.53;88.34
5062;BME280;2351;50.812;12.872;2023-04-08T13:33:25;98487.19;;;7.50;88.21
5062;BME280;2351;50.812;12.872;2023-04-08T13:35:56;98492.34;;;7.52;88.65
5062;BME280;2351;50.812;12.872;2023-04-08T13:38:28;98491.28;;;7.42;87.17
5062;BME280;2351;50.812;12.872;2023-04-08T13:41:00;98490.53;;;7.39;87.94
5062;BME280;2351;50.812;12.872;2023-04-08T13:43:33;98494.66;;;7.29;87.41
5062;BME280;2351;50.812;12.872;2023-04-08T13:46:05;98492.00;;;7.16;88.02